PMDY METAR and TAF weather

Enter ICAO airport designator
Station Type Date Time Source
PMDY METAR 2019/04/18 22:16 UTC NOAA

PMDY 182216Z AUTO 12004KT 7SM SCT007 BKN016 OVC022 22/21 A3005 RMK AO2


Station Type Date Time Source
PMDY Decoded METAR 2019/04/18 22:16 UTC NOAA

Sand Island, Henderson Field Airport, HI, United States (PMDY) 28-13N 177-22W 6M
Apr 18, 2019 - 06:16 PM EDT / 2019.04.18 2216 UTC
Wind: from the ESE (120 degrees) at 5 MPH (4 KT):0
Visibility: 7 mile(s):0
Sky conditions: overcast
Temperature: 71 F (22 C)
Dew Point: 69 F (21 C)
Relative Humidity: 94%
Pressure (altimeter): 30.05 in. Hg (1017 hPa)
ob: PMDY 182216Z AUTO 12004KT 7SM SCT007 BKN016 OVC022 22/21 A3005 RMK AO2
cycle: 22

Station Type Date Time Source
PMDY TAF 2019/04/18 22:27 UTC NOAA

TAF
AMD PMDY 182224Z 1822/1918 26009KT P6SM VCSH FEW008 SCT015 BKN025
TEMPO 1822/1901 VRB03KT 5SM BR SCT008 OVC015
FM190300 23006KT P6SM SCT025 BKN045
FM191200 20012KT P6SM SCT015 BKN035

Example: see airport list